Time;durP1;ratioP1;P1;durP2;ratioP2;P2;SDS_P1;SDS_P2;PMS_P1;PMS_P2;Temp;Humidity;BMP_temperature;BMP_pressure;BME280_temperature;BME280_humidity;BME280_pressure;Samples;Min_cycle;Max_cycle;Signal;HPM_P1;HPM_P2
2022/10/30 00:01:40;;;;;;;15.43;9.52;;;;;;;13.94;100.00;101436.47;4991829;28;20146;-56
2022/10/30 00:04:05;;;;;;;11.90;8.90;;;;;;;12.88;100.00;101292.19;4986342;28;20031;-51
2022/10/30 00:06:30;;;;;;;19.35;9.93;;;;;;;13.80;100.00;101444.94;4971893;28;20073;-53
2022/10/30 00:08:56;;;;;;;14.55;9.60;;;;;;;13.80;100.00;101446.72;4972964;28;20043;-52
2022/10/30 00:11:21;;;;;;;16.83;10.88;;;;;;;13.77;100.00;101465.34;4973254;28;20121;-56
2022/10/30 00:13:46;;;;;;;19.50;11.10;;;;;;;13.57;100.00;101425.50;4973260;28;20483;-54
2022/10/30 00:16:12;;;;;;;15.70;10.48;;;;;;;13.31;100.00;101384.13;4973144;28;20482;-53
2022/10/30 00:18:38;;;;;;;16.42;10.82;;;;;;;13.63;100.00;101457.88;4972097;28;20035;-52
2022/10/30 00:21:08;;;;;;;17.38;9.85;;;;;;;13.22;100.00;101397.66;4972920;28;20115;-55
2022/10/30 00:23:33;;;;;;;15.25;10.05;;;;;;;13.54;100.00;101460.88;4973305;28;20405;-53
2022/10/30 00:26:04;;;;;;;15.18;10.60;;;;;;;13.42;100.00;101448.94;4973134;28;20035;-56
2022/10/30 00:28:29;;;;;;;19.13;10.68;;;;;;;13.05;100.00;101394.69;4973300;28;20034;-56
2022/10/30 00:30:58;;;;;;;15.75;11.70;;;;;;;13.28;100.00;101452.97;4973000;28;20442;-52
2022/10/30 00:33:23;;;;;;;17.58;10.98;;;;;;;13.32;100.00;101458.06;4973062;28;20376;-50
2022/10/30 00:35:49;;;;;;;15.77;11.10;;;;;;;12.97;100.00;101403.72;4972862;28;20070;-56
2022/10/30 00:38:14;;;;;;;17.83;11.00;;;;;;;13.32;100.00;101470.44;4972786;28;20041;-56
2022/10/30 00:40:39;;;;;;;13.40;11.40;;;;;;;13.27;100.00;101460.03;4973084;28;20074;-53
2022/10/30 00:43:36;;;;;;;18.30;11.70;;;;;;;13.25;100.00;101472.41;4973015;28;20126;-50
2022/10/30 00:46:15;;;;;;;21.17;11.07;;;;;;;12.88;100.00;101401.38;4971532;28;20130;-55
2022/10/30 00:48:43;;;;;;;16.35;11.15;;;;;;;12.88;100.00;101396.09;4972975;28;20375;-53
2022/10/30 00:51:10;;;;;;;15.63;10.43;;;;;;;13.04;100.00;101422.00;4973033;28;20113;-55
2022/10/30 00:53:35;;;;;;;22.17;11.45;;;;;;;13.16;100.00;101456.00;4988090;28;20081;-54
2022/10/30 00:56:04;;;;;;;22.10;11.85;;;;;;;13.17;100.00;101455.94;4972977;28;20475;-56
2022/10/30 00:58:37;;;;;;;21.15;11.38;;;;;;;13.17;100.00;101463.88;4972797;28;20474;-55
2022/10/30 01:01:05;;;;;;;24.73;11.63;;;;;;;12.86;100.00;101407.63;4972488;28;20159;-52
2022/10/30 01:03:31;;;;;;;19.92;12.55;;;;;;;12.74;100.00;101398.31;4973792;28;20034;-57
2022/10/30 01:06:00;;;;;;;20.13;11.65;;;;;;;13.11;100.00;101460.56;4991491;28;20042;-55
2022/10/30 01:08:25;;;;;;;19.60;12.40;;;;;;;12.81;100.00;101412.22;4991354;28;20402;-55
2022/10/30 01:10:51;;;;;;;17.58;11.88;;;;;;;12.73;100.00;101407.16;4976382;28;20045;-53
2022/10/30 01:13:17;;;;;;;18.58;11.02;;;;;;;12.71;100.00;101411.63;4991156;28;20478;-54
2022/10/30 01:16:00;;;;;;;18.23;10.88;;;;;;;13.05;100.00;101487.19;4976334;28;20128;-51
2022/10/30 01:18:48;;;;;;;17.13;11.48;;;;;;;13.04;100.00;101482.81;4976196;28;20368;-50
2022/10/30 01:21:20;;;;;;;16.20;11.70;;;;;;;12.64;100.00;101420.66;4976094;28;20031;-58
2022/10/30 01:24:10;;;;;;;24.85;11.70;;;;;;;12.98;100.00;101476.81;4976105;28;20035;-51
2022/10/30 01:27:00;;;;;;;20.48;12.07;;;;;;;12.61;100.00;101418.09;4976202;28;20119;-54
2022/10/30 01:29:53;;;;;;;21.30;12.52;;;;;;;12.99;100.00;101482.94;4990928;28;20122;-51
2022/10/30 01:32:42;;;;;;;23.00;12.50;;;;;;;12.64;100.00;101422.44;4976004;28;20141;-49
2022/10/30 01:35:20;;;;;;;19.60;12.10;;;;;;;13.02;100.00;101469.63;4976116;28;20031;-50
2022/10/30 01:38:05;;;;;;;19.17;13.15;;;;;;;12.60;100.00;101405.84;4991062;28;20097;-53
2022/10/30 01:40:31;;;;;;;20.23;13.07;;;;;;;12.72;100.00;101423.06;4975003;28;20038;-53
2022/10/30 01:42:57;;;;;;;18.45;12.80;;;;;;;13.01;100.00;101489.06;4974748;28;20045;-54
2022/10/30 01:45:45;;;;;;;21.30;12.95;;;;;;;12.99;100.00;101493.50;4974555;28;20054;-58
2022/10/30 01:48:44;;;;;;;28.48;14.20;;;;;;;13.00;100.00;101487.31;4975678;28;20446;-53
2022/10/30 01:51:26;;;;;;;17.85;13.00;;;;;;;12.96;100.00;101477.75;4975410;28;20529;-51
2022/10/30 01:54:36;;;;;;;19.13;12.38;;;;;;;12.97;100.00;101480.34;4974494;28;20114;-54
2022/10/30 01:57:05;;;;;;;25.58;13.90;;;;;;;12.57;100.00;101415.63;4934636;29;20091;-57
2022/10/30 01:59:36;;;;;;;18.83;12.75;;;;;;;12.84;100.00;101467.59;4934844;29;20047;-56
2022/10/30 02:02:02;;;;;;;18.52;12.70;;;;;;;12.91;100.00;101480.53;4957683;28;20058;-56
2022/10/30 02:04:28;;;;;;;17.80;13.02;;;;;;;12.60;100.00;101432.25;4973973;28;20064;-54
2022/10/30 02:06:53;;;;;;;18.33;12.90;;;;;;;12.82;100.00;101483.47;4990509;28;20037;-54
2022/10/30 02:09:19;;;;;;;18.30;11.80;;;;;;;12.84;100.00;101484.28;4975212;28;20046;-53
2022/10/30 02:11:45;;;;;;;22.52;12.00;;;;;;;12.71;100.00;101469.75;4975573;28;20027;-52
2022/10/30 02:14:11;;;;;;;23.45;13.02;;;;;;;12.45;100.00;101431.84;4990287;28;20042;-51
2022/10/30 02:16:41;;;;;;;20.80;13.48;;;;;;;12.42;100.00;101432.81;4989401;28;20047;-55
2022/10/30 02:19:07;;;;;;;18.27;13.30;;;;;;;12.66;100.00;101487.53;4973743;28;20030;-51
2022/10/30 02:21:32;;;;;;;24.67;13.73;;;;;;;12.64;100.00;101480.56;4975176;28;20035;-50
2022/10/30 02:23:57;;;;;;;22.17;13.95;;;;;;;12.23;100.00;101423.72;4974808;28;20084;-51
2022/10/30 02:26:23;;;;;;;22.38;13.98;;;;;;;12.55;100.00;101494.88;4975119;28;20125;-53
2022/10/30 02:28:48;;;;;;;23.27;14.23;;;;;;;12.45;100.00;101488.16;4975224;28;20034;-53
2022/10/30 02:31:13;;;;;;;22.02;13.65;;;;;;;12.48;100.00;101498.63;4990034;28;20169;-55
2022/10/30 02:33:43;;;;;;;20.85;14.20;;;;;;;12.23;100.00;101469.44;4975060;28;20038;-53
2022/10/30 02:36:08;;;;;;;19.23;14.00;;;;;;;12.01;100.00;101428.75;4975020;28;20117;-50
2022/10/30 02:38:34;;;;;;;21.52;13.75;;;;;;;12.41;100.00;101510.28;4974666;28;20526;-56
2022/10/30 02:40:59;;;;;;;24.60;13.65;;;;;;;12.02;100.00;101440.19;4974912;28;20038;-51
2022/10/30 02:43:24;;;;;;;28.55;14.07;;;;;;;12.36;100.00;101504.28;4974720;28;20375;-57
2022/10/30 02:45:50;;;;;;;23.55;13.75;;;;;;;12.15;100.00;101482.00;4974614;28;20058;-56
2022/10/30 02:48:16;;;;;;;18.83;12.77;;;;;;;12.22;100.00;101502.03;4974703;28;20064;-56
2022/10/30 02:50:42;;;;;;;19.27;13.38;;;;;;;11.95;100.00;101473.78;4973998;28;20086;-56
2022/10/30 02:53:07;;;;;;;26.02;14.18;;;;;;;12.19;100.00;101517.09;4974271;28;20385;-54
2022/10/30 02:55:32;;;;;;;24.40;13.70;;;;;;;12.15;100.00;101515.44;4989200;28;20478;-52
2022/10/30 02:57:57;;;;;;;20.83;12.88;;;;;;;12.04;100.00;101492.00;4974517;28;20041;-52
2022/10/30 03:00:23;;;;;;;21.65;13.68;;;;;;;11.65;100.00;101435.88;4974361;28;20113;-53
2022/10/30 03:02:54;;;;;;;21.92;13.60;;;;;;;11.93;100.00;101482.66;4973017;28;20034;-57
2022/10/30 03:05:19;;;;;;;20.90;13.38;;;;;;;11.61;100.00;101441.28;4974287;28;20031;-60
2022/10/30 03:07:47;;;;;;;21.23;12.77;;;;;;;11.26;100.00;101389.53;4989027;28;20042;-54
2022/10/30 03:10:12;;;;;;;19.95;13.82;;;;;;;11.56;100.00;101449.31;4988953;28;20042;-52
2022/10/30 03:12:37;;;;;;;21.35;14.10;;;;;;;11.85;100.00;101509.22;4989209;28;20085;-51
2022/10/30 03:15:03;;;;;;;20.63;13.02;;;;;;;11.82;100.00;101496.13;4972917;28;20456;-52
2022/10/30 03:17:29;;;;;;;25.23;13.68;;;;;;;11.78;100.00;101491.84;4972850;28;20391;-56
2022/10/30 03:19:54;;;;;;;22.67;14.80;;;;;;;11.75;100.00;101486.66;4973959;28;20173;-58
2022/10/30 03:22:19;;;;;;;21.58;13.57;;;;;;;11.74;100.00;101487.53;4973400;28;20474;-55
2022/10/30 03:24:45;;;;;;;23.30;14.20;;;;;;;11.73;100.00;101497.22;4973849;28;20046;-57
2022/10/30 03:27:10;;;;;;;24.08;14.02;;;;;;;11.75;100.00;101502.47;4973750;28;20166;-52
2022/10/30 03:29:35;;;;;;;25.63;15.20;;;;;;;11.66;100.00;101482.44;4988790;28;20126;-53
2022/10/30 03:32:00;;;;;;;21.55;14.07;;;;;;;11.09;100.00;101399.63;4973790;28;20039;-53
2022/10/30 03:34:26;;;;;;;21.30;15.02;;;;;;;11.59;100.00;101477.38;4973751;28;20038;-54
2022/10/30 03:36:51;;;;;;;23.67;15.35;;;;;;;11.56;100.00;101490.63;4973759;28;20038;-49
2022/10/30 03:39:17;;;;;;;21.17;14.75;;;;;;;11.24;100.00;101434.34;4973411;28;20049;-58
2022/10/30 03:41:42;;;;;;;24.65;14.18;;;;;;;11.59;100.00;101490.53;4973814;28;20071;-53
2022/10/30 03:44:09;;;;;;;21.60;15.07;;;;;;;11.47;100.00;101477.72;4973487;28;20170;-55
2022/10/30 03:46:34;;;;;;;23.70;14.65;;;;;;;11.52;100.00;101499.53;4973582;28;20130;-55
2022/10/30 03:49:00;;;;;;;25.70;15.98;;;;;;;11.49;100.00;101492.59;4988479;28;20042;-52
2022/10/30 03:51:25;;;;;;;24.60;15.40;;;;;;;11.47;100.00;101507.56;4973283;28;20101;-58
2022/10/30 03:53:50;;;;;;;23.50;15.57;;;;;;;11.45;100.00;101508.50;4973449;28;20038;-57
2022/10/30 03:56:16;;;;;;;23.88;15.07;;;;;;;11.04;100.00;101439.25;4988667;28;20497;-54
2022/10/30 03:58:41;;;;;;;21.35;14.30;;;;;;;11.37;100.00;101505.19;4973543;28;20045;-53
2022/10/30 04:01:07;;;;;;;22.33;15.35;;;;;;;11.34;100.00;101506.13;4973606;28;20122;-54
2022/10/30 04:03:32;;;;;;;25.30;15.68;;;;;;;11.28;100.00;101504.53;4972554;28;20167;-53
2022/10/30 04:05:58;;;;;;;21.75;15.07;;;;;;;11.01;100.00;101456.91;4973364;28;20038;-58
2022/10/30 04:08:23;;;;;;;25.48;15.40;;;;;;;11.23;100.00;101501.16;4973413;28;20027;-55
2022/10/30 04:10:48;;;;;;;25.90;15.32;;;;;;;10.97;100.00;101458.75;4973518;28;20077;-52
2022/10/30 04:13:15;;;;;;;28.17;16.75;;;;;;;11.16;100.00;101502.19;4973468;28;20038;-54
2022/10/30 04:15:41;;;;;;;27.52;16.33;;;;;;;11.16;100.00;101507.47;4971920;28;20467;-57
2022/10/30 04:18:09;;;;;;;25.02;15.52;;;;;;;11.13;100.00;101518.06;4972176;28;20038;-57
2022/10/30 04:20:35;;;;;;;23.10;15.15;;;;;;;10.79;100.00;101453.94;4988413;28;20410;-55
2022/10/30 04:23:02;;;;;;;29.70;16.58;;;;;;;10.84;100.00;101462.56;4973506;28;20031;-55
2022/10/30 04:25:28;;;;;;;22.20;16.00;;;;;;;11.03;100.00;101497.25;4973461;28;20035;-56
2022/10/30 04:27:53;;;;;;;25.70;16.15;;;;;;;11.06;100.00;101500.66;4973470;28;20064;-59
2022/10/30 04:30:23;;;;;;;24.92;16.17;;;;;;;10.77;100.00;101446.97;4973222;28;20054;-57
2022/10/30 04:32:51;;;;;;;28.03;15.97;;;;;;;11.03;100.00;101505.16;4987949;28;20570;-55
2022/10/30 04:35:18;;;;;;;24.35;16.05;;;;;;;10.77;100.00;101462.75;4971936;28;20645;-55
2022/10/30 04:38:00;;;;;;;26.08;17.40;;;;;;;11.01;100.00;101496.41;4973342;28;20498;-56
2022/10/30 04:40:29;;;;;;;28.10;16.17;;;;;;;10.76;100.00;101443.47;4976867;28;20466;-53
2022/10/30 04:42:54;;;;;;;24.70;17.48;;;;;;;11.02;100.00;101479.72;4976951;28;20367;-54
2022/10/30 04:45:19;;;;;;;36.90;18.38;;;;;;;11.04;100.00;101478.75;4976888;28;20105;-58
2022/10/30 04:47:45;;;;;;;29.65;18.25;;;;;;;10.72;100.00;101424.22;4976731;28;20495;-56
2022/10/30 04:50:11;;;;;;;32.38;19.73;;;;;;;10.80;100.00;101416.13;4975199;28;20141;-56
2022/10/30 04:52:37;;;;;;;29.60;19.73;;;;;;;10.83;100.00;101409.94;4991613;28;20039;-54
2022/10/30 04:55:03;;;;;;;34.85;18.98;;;;;;;11.18;100.00;101476.66;4975638;28;20039;-56
2022/10/30 04:57:30;;;;;;;28.35;18.73;;;;;;;10.85;100.00;101413.41;4975507;28;20049;-54
2022/10/30 04:59:56;;;;;;;31.33;18.25;;;;;;;11.07;100.00;101462.00;4979801;28;20081;-55
2022/10/30 05:02:21;;;;;;;33.25;18.15;;;;;;;11.10;100.00;101496.19;4983084;28;20043;-55
2022/10/30 05:04:46;;;;;;;37.03;19.75;;;;;;;10.79;100.00;101437.25;4975233;28;20030;-55
2022/10/30 05:07:12;;;;;;;29.13;19.60;;;;;;;11.06;100.00;101489.28;4976407;28;20486;-55
2022/10/30 05:09:38;;;;;;;31.35;19.58;;;;;;;11.05;100.00;101482.28;4976202;28;20035;-52
2022/10/30 05:12:04;;;;;;;33.47;18.08;;;;;;;11.04;100.00;101498.97;4993315;28;20069;-57
2022/10/30 05:14:30;;;;;;;32.03;18.70;;;;;;;11.01;100.00;101496.41;5010726;28;20034;-55
2022/10/30 05:16:55;;;;;;;29.45;18.70;;;;;;;10.98;100.00;101496.47;4995889;28;20034;-54
2022/10/30 05:19:21;;;;;;;33.78;19.10;;;;;;;10.91;100.00;101484.38;4995857;28;20140;-53
2022/10/30 05:21:46;;;;;;;35.20;18.73;;;;;;;10.62;100.00;101432.38;5010714;28;20041;-53
2022/10/30 05:24:11;;;;;;;33.25;18.65;;;;;;;10.91;100.00;101489.63;4995560;28;20046;-53
2022/10/30 05:26:37;;;;;;;26.15;17.42;;;;;;;10.93;100.00;101487.81;4995717;28;20034;-51
2022/10/30 05:29:02;;;;;;;29.23;17.70;;;;;;;10.87;100.00;101480.06;4995420;28;20054;-51
2022/10/30 05:31:27;;;;;;;26.95;18.67;;;;;;;10.91;100.00;101487.00;4995268;28;20066;-52
2022/10/30 05:33:53;;;;;;;26.35;18.45;;;;;;;10.86;100.00;101486.25;4995527;28;20081;-54
2022/10/30 05:36:18;;;;;;;29.80;19.15;;;;;;;10.86;100.00;101491.53;5010558;28;20061;-58
2022/10/30 05:38:45;;;;;;;30.38;18.85;;;;;;;10.83;100.00;101492.44;4995225;28;20509;-53
2022/10/30 05:41:10;;;;;;;32.95;19.38;;;;;;;10.84;100.00;101498.56;4995326;28;20092;-53
2022/10/30 05:43:36;;;;;;;28.20;19.10;;;;;;;10.82;100.00;101498.63;4994095;28;20450;-52
2022/10/30 05:46:01;;;;;;;27.73;17.55;;;;;;;10.81;100.00;101494.25;4995026;28;20030;-57
2022/10/30 05:48:26;;;;;;;34.22;18.48;;;;;;;10.81;100.00;101506.53;4994051;28;20393;-54
2022/10/30 05:50:54;;;;;;;27.83;18.98;;;;;;;10.78;100.00;101510.13;4993609;28;20046;-57
2022/10/30 05:53:19;;;;;;;34.47;18.63;;;;;;;10.77;100.00;101518.06;5010179;28;20470;-55
2022/10/30 05:55:45;;;;;;;29.63;18.30;;;;;;;10.45;100.00;101458.22;4994831;28;20053;-56
2022/10/30 05:58:10;;;;;;;32.47;18.75;;;;;;;10.68;100.00;101506.81;4994903;28;20030;-53
2022/10/30 06:00:38;;;;;;;34.55;19.13;;;;;;;10.37;100.00;101466.28;4994916;28;20540;-51
2022/10/30 06:03:05;;;;;;;32.60;19.40;;;;;;;10.46;100.00;101484.50;5009987;28;20030;-55
2022/10/30 06:05:32;;;;;;;33.33;18.60;;;;;;;10.55;100.00;101501.84;4995233;28;20030;-55
2022/10/30 06:07:58;;;;;;;34.92;19.10;;;;;;;10.56;100.00;101512.38;4994786;28;20073;-56
2022/10/30 06:10:24;;;;;;;31.73;18.95;;;;;;;10.35;100.00;101465.44;4993654;28;20381;-52
2022/10/30 06:12:53;;;;;;;36.47;19.55;;;;;;;10.32;100.00;101452.34;4994752;28;20046;-54
2022/10/30 06:15:19;;;;;;;34.25;19.98;;;;;;;10.36;100.00;101464.53;4994438;28;20121;-57
2022/10/30 06:17:44;;;;;;;33.28;19.30;;;;;;;10.50;100.00;101491.44;4994884;28;20138;-55
2022/10/30 06:20:10;;;;;;;35.10;20.42;;;;;;;10.66;100.00;101515.66;4994897;28;20393;-52
2022/10/30 06:22:35;;;;;;;36.15;20.52;;;;;;;10.38;100.00;101470.66;4994637;28;20435;-54
2022/10/30 06:25:00;;;;;;;35.00;21.15;;;;;;;10.64;100.00;101520.97;4994562;28;20041;-55
2022/10/30 06:27:25;;;;;;;39.95;21.33;;;;;;;10.64;100.00;101520.97;4994274;28;20030;-56
2022/10/30 06:29:53;;;;;;;36.13;21.92;;;;;;;10.66;100.00;101524.41;4994237;28;20050;-55
2022/10/30 06:32:19;;;;;;;35.78;22.45;;;;;;;10.39;100.00;101463.63;4994514;28;20035;-52
2022/10/30 06:34:44;;;;;;;40.60;23.48;;;;;;;10.48;100.00;101476.56;4994450;28;20422;-49
2022/10/30 06:37:10;;;;;;;37.38;22.70;;;;;;;10.50;100.00;101478.28;4994257;28;20182;-54
2022/10/30 06:39:35;;;;;;;38.40;22.75;;;;;;;10.74;100.00;101508.44;4994152;28;20176;-54
2022/10/30 06:42:00;;;;;;;43.25;23.63;;;;;;;10.81;100.00;101517.06;4994096;28;20038;-55
2022/10/30 06:44:26;;;;;;;42.22;23.80;;;;;;;10.82;100.00;101505.66;4992765;28;20042;-50
2022/10/30 06:46:52;;;;;;;38.42;21.92;;;;;;;10.65;100.00;101464.75;4994049;28;20295;-52
2022/10/30 06:49:17;;;;;;;46.28;23.38;;;;;;;10.76;100.00;101471.56;4994077;28;20141;-56
2022/10/30 06:51:43;;;;;;;41.95;22.65;;;;;;;11.07;100.00;101512.06;4993998;28;20142;-49
2022/10/30 06:54:08;;;;;;;38.75;23.30;;;;;;;10.84;100.00;101473.09;4993931;28;20089;-53
2022/10/30 06:56:33;;;;;;;40.38;23.95;;;;;;;11.17;100.00;101509.19;4993723;28;20030;-57
2022/10/30 06:58:58;;;;;;;39.08;23.25;;;;;;;11.25;100.00;101506.38;4993831;28;20093;-55
2022/10/30 07:01:24;;;;;;;39.45;22.52;;;;;;;11.29;100.00;101497.50;4993523;28;20306;-57
2022/10/30 07:03:49;;;;;;;46.28;22.88;;;;;;;11.43;100.00;101499.78;4993986;28;20035;-57
2022/10/30 07:06:14;;;;;;;42.40;23.00;;;;;;;11.56;100.00;101496.78;4993677;28;20038;-57
2022/10/30 07:08:40;;;;;;;40.08;21.88;;;;;;;11.68;100.00;101512.28;4993621;28;20414;-52
2022/10/30 07:11:05;;;;;;;38.58;22.48;;;;;;;11.78;100.00;101495.34;5008593;28;20026;-52
2022/10/30 07:13:30;;;;;;;36.17;21.85;;;;;;;11.57;100.00;101437.88;4993482;28;20053;-57
2022/10/30 07:15:57;;;;;;;32.95;21.33;;;;;;;11.97;100.00;101495.69;4993305;28;20030;-51
2022/10/30 07:18:23;;;;;;;36.10;22.60;;;;;;;12.13;100.00;101517.25;4993453;28;20041;-54
2022/10/30 07:20:53;;;;;;;36.58;20.70;;;;;;;11.85;100.00;101464.38;4993564;28;20390;-55
2022/10/30 07:23:18;;;;;;;34.63;20.85;;;;;;;12.27;100.00;101500.13;4993353;28;20129;-52
2022/10/30 07:25:43;;;;;;;40.05;22.38;;;;;;;12.07;100.00;101465.53;4993391;28;20062;-56
2022/10/30 07:28:08;;;;;;;37.08;20.83;;;;;;;12.12;100.00;101465.38;4993159;28;20548;-52
2022/10/30 07:30:34;;;;;;;30.08;20.73;;;;;;;12.39;100.00;101506.81;4993558;28;20053;-58
2022/10/30 07:33:01;;;;;;;32.15;20.42;;;;;;;12.43;100.00;101512.88;4993512;28;20046;-53
2022/10/30 07:35:27;;;;;;;35.53;20.40;;;;;;;12.28;100.00;101480.75;4993476;28;20046;-53
2022/10/30 07:37:52;;;;;;;34.20;20.27;;;;;;;12.50;100.00;101515.28;4992009;28;20397;-60
2022/10/30 07:40:18;;;;;;;34.10;20.83;;;;;;;12.62;100.00;101521.97;5008236;28;20043;-59
2022/10/30 07:42:43;;;;;;;34.13;20.65;;;;;;;12.63;100.00;101499.94;4993126;28;20497;-53
2022/10/30 07:45:09;;;;;;;35.78;21.55;;;;;;;12.73;100.00;101504.88;4992885;28;20062;-54
2022/10/30 07:47:41;;;;;;;37.05;22.13;;;;;;;12.64;100.00;101456.78;4993249;28;20031;-59
2022/10/30 07:50:07;;;;;;;32.90;21.23;;;;;;;13.04;100.00;101507.47;4992768;28;20061;-58
2022/10/30 07:52:32;;;;;;;30.67;20.33;;;;;;;13.15;100.00;101515.94;4993212;28;20046;-53
2022/10/30 07:54:57;;;;;;;31.70;20.80;;;;;;;12.99;100.00;101464.44;4991804;28;20064;-54
2022/10/30 07:57:23;;;;;;;29.17;20.55;;;;;;;13.38;100.00;101510.75;4992920;28;20030;-52
2022/10/30 07:59:48;;;;;;;34.28;21.33;;;;;;;13.23;100.00;101457.50;4992912;28;20034;-54
2022/10/30 08:02:13;;;;;;;27.65;18.38;;;;;;;13.59;100.00;101510.94;4991692;28;20298;-59
2022/10/30 08:04:38;;;;;;;31.13;18.83;;;;;;;13.69;100.00;101513.22;4992888;28;20035;-53
2022/10/30 08:07:04;;;;;;;32.28;19.95;;;;;;;13.72;100.00;101501.69;4993010;28;20034;-52
2022/10/30 08:09:29;;;;;;;29.35;20.50;;;;;;;13.58;100.00;101478.34;4992853;28;20030;-52
2022/10/30 08:11:54;;;;;;;29.13;18.63;;;;;;;13.65;100.00;101476.34;4992449;28;20406;-58
2022/10/30 08:14:20;;;;;;;32.45;19.55;;;;;;;13.38;100.00;101427.91;4995234;28;20034;-53
2022/10/30 08:16:45;;;;;;;34.33;21.75;;;;;;;14.08;100.00;101533.00;4996805;28;20140;-56
2022/10/30 08:19:10;;;;;;;34.15;20.92;;;;;;;14.16;100.00;101540.66;4996955;28;20238;-52
2022/10/30 08:21:36;;;;;;;32.47;20.33;;;;;;;14.24;100.00;101538.63;4995630;28;20080;-56
2022/10/30 08:24:01;;;;;;;29.30;20.63;;;;;;;14.35;100.00;101535.59;4995745;28;20038;-53
2022/10/30 08:26:26;;;;;;;26.20;19.15;;;;;;;14.44;100.00;101536.13;4996549;28;20038;-55
2022/10/30 08:28:51;;;;;;;22.42;16.95;;;;;;;14.32;100.00;101490.66;4996603;28;20038;-55
2022/10/30 08:31:17;;;;;;;27.48;17.42;;;;;;;14.67;100.00;101535.25;4996722;28;20042;-53
2022/10/30 08:33:42;;;;;;;22.95;16.67;;;;;;;14.82;100.00;101531.16;4996692;28;20038;-56
2022/10/30 08:36:08;;;;;;;23.70;16.67;;;;;;;14.63;100.00;101473.56;4995227;28;20035;-55
2022/10/30 08:38:33;;;;;;;29.05;15.85;;;;;;;14.98;100.00;101519.00;4994669;28;20043;-50
2022/10/30 08:41:00;;;;;;;19.15;15.23;;;;;;;14.91;100.00;101483.97;4996146;28;20455;-54
2022/10/30 08:43:25;;;;;;;21.55;14.45;;;;;;;15.20;100.00;101507.50;4995263;28;20695;-58
2022/10/30 08:45:51;;;;;;;22.98;14.63;;;;;;;15.26;100.00;101495.78;4995994;28;20117;-54
2022/10/30 08:48:16;;;;;;;21.50;14.70;;;;;;;15.05;100.00;101452.44;4996556;28;20121;-56
2022/10/30 08:50:41;;;;;;;21.20;13.10;;;;;;;15.47;100.00;101504.66;4994859;28;20369;-57
2022/10/30 08:53:10;;;;;;;23.92;14.38;;;;;;;15.53;100.00;101507.03;4995604;28;20034;-56
2022/10/30 08:55:35;;;;;;;18.23;13.52;;;;;;;15.65;100.00;101514.47;4976254;28;20512;-52
2022/10/30 08:58:01;;;;;;;26.63;15.70;;;;;;;15.66;100.00;101511.78;4976858;28;20031;-56
2022/10/30 09:00:26;;;;;;;18.20;12.98;;;;;;;15.60;100.00;101500.56;4976587;28;20376;-57
2022/10/30 09:02:52;;;;;;;26.27;14.23;;;;;;;15.52;100.00;101490.28;4976354;28;20050;-55
2022/10/30 09:05:17;;;;;;;19.15;13.02;;;;;;;15.78;100.00;101531.63;4976556;28;20092;-55
2022/10/30 09:07:43;;;;;;;20.63;13.02;;;;;;;15.81;100.00;101526.19;4976636;28;20063;-54
2022/10/30 09:10:08;;;;;;;19.80;13.15;;;;;;;15.73;100.00;101507.91;4974815;28;20050;-54
2022/10/30 09:12:34;;;;;;;20.98;13.30;;;;;;;15.86;100.00;101516.22;4988841;28;20529;-54
2022/10/30 09:14:59;;;;;;;19.65;13.85;;;;;;;15.97;100.00;101537.84;4995782;28;20505;-53
2022/10/30 09:17:25;;;;;;;21.65;14.10;;;;;;;16.00;100.00;101520.91;4995984;28;20038;-58
2022/10/30 09:19:50;;;;;;;17.00;12.98;;;;;;;16.10;100.00;101524.91;4995677;28;20089;-54
2022/10/30 09:22:16;;;;;;;18.88;13.00;;;;;;;16.15;100.00;101536.19;4995796;28;20114;-58
2022/10/30 09:24:41;;;;;;;16.13;12.63;;;;;;;16.23;100.00;101531.38;4995333;28;20038;-57
2022/10/30 09:27:07;;;;;;;20.02;12.10;;;;;;;16.24;100.00;101535.78;5011067;28;20081;-61
2022/10/30 09:29:32;;;;;;;24.90;13.35;;;;;;;16.32;100.00;101530.97;4994302;28;20349;-52
2022/10/30 09:31:58;;;;;;;17.30;12.98;;;;;;;16.48;100.00;101542.66;4994405;28;20030;-53
2022/10/30 09:34:23;;;;;;;22.83;12.30;;;;;;;16.39;100.00;101508.53;5010585;28;20065;-53
2022/10/30 09:36:49;;;;;;;19.05;11.77;;;;;;;16.46;100.00;101498.47;5009627;28;20042;-54
2022/10/30 09:39:14;;;;;;;21.95;12.45;;;;;;;16.79;100.00;101547.44;4995022;28;20046;-52
2022/10/30 09:41:58;;;;;;;20.80;13.05;;;;;;;16.89;100.00;101540.75;4995244;28;20529;-53
2022/10/30 09:44:44;;;;;;;19.38;12.27;;;;;;;17.04;100.00;101542.69;4995319;28;20105;-51
2022/10/30 09:47:21;;;;;;;16.27;11.65;;;;;;;17.16;100.00;101530.59;4995085;28;20042;-53
2022/10/30 09:49:49;;;;;;;20.65;11.18;;;;;;;17.33;100.00;101541.28;5009951;28;20030;-54
2022/10/30 09:52:21;;;;;;;20.77;12.75;;;;;;;17.44;100.00;101550.47;4994960;28;20093;-55
2022/10/30 09:55:08;;;;;;;20.52;11.45;;;;;;;17.61;100.00;101546.97;4994669;28;20030;-54
2022/10/30 09:58:01;;;;;;;16.17;10.77;;;;;;;17.75;100.00;101563.13;4993835;28;20041;-57
2022/10/30 10:00:38;;;;;;;20.60;11.15;;;;;;;17.73;100.00;101522.41;4993678;28;20034;-56
2022/10/30 10:03:18;;;;;;;18.92;10.52;;;;;;;17.74;100.00;101517.94;4992640;28;20030;-58
2022/10/30 10:05:50;;;;;;;20.15;11.10;;;;;;;17.84;100.00;101512.06;4993860;28;20117;-55
2022/10/30 10:08:21;;;;;;;13.27;9.90;;;;;;;18.12;100.00;101555.91;4994002;28;20118;-57
2022/10/30 10:10:51;;;;;;;14.20;11.05;;;;;;;18.05;100.00;101531.38;4993074;28;20053;-53
2022/10/30 10:13:30;;;;;;;16.80;10.25;;;;;;;18.10;100.00;101536.47;4993890;28;20077;-56
2022/10/30 10:15:59;;;;;;;19.70;11.02;;;;;;;18.03;100.00;101529.75;4994140;28;20397;-56
2022/10/30 10:18:36;;;;;;;16.35;10.25;;;;;;;18.25;100.00;101554.31;4994444;28;20026;-54
2022/10/30 10:21:09;;;;;;;17.52;9.55;;;;;;;18.30;100.00;101553.13;5009664;28;20038;-58
2022/10/30 10:23:40;;;;;;;20.13;10.75;;;;;;;18.31;100.00;101569.97;5009715;28;20037;-54
2022/10/30 10:26:44;;;;;;;17.23;10.07;;;;;;;18.33;100.00;101566.28;4993119;28;20065;-54
2022/10/30 10:29:28;;;;;;;17.05;9.95;;;;;;;18.35;100.00;101559.09;4992995;28;20072;-52
2022/10/30 10:32:23;;;;;;;15.63;8.63;;;;;;;18.34;100.00;101559.16;4994411;28;20048;-55
2022/10/30 10:35:08;;;;;;;12.48;9.23;;;;;;;18.37;100.00;101543.00;4983687;28;20042;-54
2022/10/30 10:37:39;;;;;;;11.60;8.80;;;;;;;18.42;100.00;101555.13;4993639;28;20494;-56
2022/10/30 10:40:29;;;;;;;15.18;9.32;;;;;;;18.53;100.00;101552.78;4992865;28;20121;-52
2022/10/30 10:43:24;;;;;;;16.38;8.55;;;;;;;18.61;100.00;101555.06;4993031;28;20034;-54
2022/10/30 10:46:06;;;;;;;17.58;9.10;;;;;;;18.72;100.00;101551.78;4989109;28;20085;-51
2022/10/30 10:48:51;;;;;;;21.52;9.90;;;;;;;18.86;100.00;101559.88;4994318;28;20487;-52
2022/10/30 10:51:21;;;;;;;14.25;8.43;;;;;;;18.83;100.00;101539.56;4993634;28;20046;-49
2022/10/30 10:53:56;;;;;;;14.02;8.98;;;;;;;18.92;100.00;101535.53;4994072;28;20038;-53
2022/10/30 10:56:27;;;;;;;17.70;8.13;;;;;;;18.38;100.00;101460.31;4993938;28;20478;-52
2022/10/30 10:58:53;;;;;;;;;;;;;;;19.16;100.00;101549.31;4994196;28;20065;-55
2022/10/30 11:01:36;;;;;;;17.25;8.75;;;;;;;18.98;100.00;101506.72;4993846;28;19921;-55
2022/10/30 11:04:13;;;;;;;19.40;9.15;;;;;;;19.06;100.00;101506.25;4993374;28;20425;-52
2022/10/30 11:06:41;;;;;;;18.00;9.40;;;;;;;19.39;100.00;101539.06;4993560;28;20034;-57
2022/10/30 11:09:20;;;;;;;17.35;8.13;;;;;;;19.46;100.00;101552.94;4991385;28;20042;-51